utilisation pie
utilisation bar
humidity graph
temperature graph
Station id: aae83c for 2 days

start:   stop:  

day time in temp out temp in RH out RH H quota rule action
2024-06-19 00:02:50 20.2 13.7 63 83 90 t
1
2024-06-19 00:33:02 20.4 13.2 61 83 89 t
1
2024-06-19 01:03:15 20.0 12.7 61 83 88 t
1
2024-06-19 01:33:27 19.3 12.2 61 84 89 t
1
2024-06-19 02:03:39 19.8 11.9 59 85 90 t
1
2024-06-19 02:33:50 18.9 11.6 59 85 92 t
1
2024-06-19 03:04:02 19.6 11.3 57 86 91 t
1
2024-06-19 03:34:14 18.7 11.1 59 86 92 t
1
2024-06-19 04:04:26 18.1 11.1 56 86 99 h 0
2024-06-19 04:34:38 19.1 11.1 58 86 91 t
1
2024-06-19 05:04:50 18.0 11.4 56 88 105 h 0
2024-06-19 05:35:01 19.2 12.2 58 87 98 h 0
2024-06-19 06:05:13 19.1 12.6 59 87 99 h 0
2024-06-19 06:35:25 18.6 13.1 62 86 100 h 0
2024-06-19 07:05:37 19.4 13.3 60 86 100 h 0
2024-06-19 07:35:49 18.7 14.0 61 84 104 h 0
2024-06-19 08:06:02 19.5 14.8 59 81 104 h 0
2024-06-19 08:36:14 19.0 15.6 60 79 107 h 0
2024-06-19 09:06:26 18.7 15.8 62 77 104 h 0
2024-06-19 09:36:40 19.4 16.2 60 76 105 h 0
2024-06-19 10:06:57 18.9 16.6 62 74 105 h 0
2024-06-19 10:37:10 19.9 17.1 59 73 105 h 0
2024-06-19 11:07:25 19.1 17.5 59 71 110 h 0
2024-06-19 11:37:37 19.2 18.0 58 69 110 h 0
2024-06-19 12:07:49 19.5 18.3 57 68 112 h 0
2024-06-19 12:38:01 19.1 19.5 58 63 112 h 0
2024-06-19 13:08:12 20.2 20.0 54 62 113 h 0
2024-06-19 13:38:24 19.5 20.1 56 61 113 h 0
2024-06-19 14:08:42 21.4 20.5 54 59 104 h 0
2024-06-19 14:38:54 22.2 21.1 53 57 101 h 0
2024-06-19 15:09:07 23.4 21.3 50 55 97 h 0
2024-06-19 15:39:19 23.5 19.4 51 62 97 h 0
2024-06-19 16:09:32 23.5 17.6 51 71 99 h 0
2024-06-19 16:39:44 25.1 18.8 47 69 103 h 0
2024-06-19 17:09:56 25.8 19.5 45 64 99 h 0
2024-06-19 17:40:08 26.4 19.6 44 63 98 h 0
2024-06-19 18:10:23 26.7 19.3 43 64 98 h 0
2024-06-19 18:40:34 25.8 18.7 45 71 106 h 0
2024-06-19 19:10:47 24.4 19.2 48 70 108 h 0
2024-06-19 19:41:03 23.9 19.2 49 67 103 h 0
2024-06-19 20:11:20 23.5 18.6 50 66 99 h 0
2024-06-19 20:41:37 23.9 18.2 49 71 103 h 0
2024-06-19 21:11:50 23.4 17.7 51 71 101 h 0
2024-06-19 21:42:01 22.8 16.9 52 73 100 h 0
2024-06-19 22:12:13 23.6 16.0 50 76 98 h 0
2024-06-19 22:42:25 22.7 15.4 52 77 97 h 0
2024-06-19 23:12:37 22.1 14.8 53 79 96 h 0
2024-06-19 23:42:48 23.1 14.4 50 81 97 h 0
2024-06-20 00:13:02 22.0 14.2 53 82 98 h 0
2024-06-20 00:43:13 22.1 14.1 53 82 97 h 0
2024-06-20 01:13:25 22.0 13.8 52 83 97 h 0
2024-06-20 01:43:37 21.2 13.5 54 84 98 h 0
2024-06-20 02:13:49 22.1 13.0 52 85 96 h 0
2024-06-20 02:44:00 21.1 12.4 54 85 93 t
1
2024-06-20 03:14:12 20.7 12.2 53 84 95 h 0
2024-06-20 03:44:24 20.8 11.7 53 83 92 t
1
2024-06-20 04:14:36 19.8 11.7 53 82 94 h 0
2024-06-20 04:44:48 20.7 11.5 51 83 94 h 0
2024-06-20 05:14:59 20.0 11.3 53 84 94 h 0
2024-06-20 05:45:11 20.9 11.7 51 84 96 h 0
2024-06-20 06:15:23 20.3 12.5 52 81 97 h 0
2024-06-20 06:45:35 21.0 13.5 51 74 93 t
1
2024-06-20 07:15:49 19.6 13.6 52 72 96 h 0
2024-06-20 07:46:01 19.9 14.8 52 68 96 h 0


2024-06-20 08:18:27 CEST